Time;durP1;ratioP1;P1;durP2;ratioP2;P2;SDS_P1;SDS_P2;PMS_P1;PMS_P2;Temp;Humidity;BMP_temperature;BMP_pressure;BME280_temperature;BME280_humidity;BME280_pressure;Samples;Min_cycle;Max_cycle;Signal;HPM_P1;HPM_P2
2023/04/25 00:01:04;;;;;;;6.60;3.20;;;10.00;99.90;;;;;;5032433;28;20406;-75
2023/04/25 00:03:31;;;;;;;5.50;2.60;;;10.20;99.90;;;;;;5034011;28;20183;-75
2023/04/25 00:06:03;;;;;;;3.87;2.00;;;10.20;99.90;;;;;;5029426;28;20216;-74
2023/04/25 00:08:30;;;;;;;4.50;2.10;;;10.10;99.90;;;;;;5047379;28;20218;-75
2023/04/25 00:10:56;;;;;;;4.47;2.40;;;10.10;99.90;;;;;;5033231;28;20209;-75
2023/04/25 00:13:22;;;;;;;6.53;2.37;;;10.20;99.90;;;;;;5033459;28;20211;-74
2023/04/25 00:15:48;;;;;;;3.87;2.00;;;10.20;99.90;;;;;;5033336;28;20726;-74
2023/04/25 00:18:14;;;;;;;4.97;1.97;;;10.10;99.90;;;;;;5048394;28;20263;-73
2023/04/25 00:20:40;;;;;;;2.53;1.83;;;10.20;99.90;;;;;;5033361;28;20687;-75
2023/04/25 00:23:05;;;;;;;3.53;2.07;;;10.20;99.90;;;;;;5033132;28;20212;-75
2023/04/25 00:25:31;;;;;;;7.07;2.30;;;10.10;99.90;;;;;;5032956;28;20208;-75
2023/04/25 00:27:57;;;;;;;3.60;1.90;;;10.10;99.90;;;;;;5047939;28;20223;-75
2023/04/25 00:30:22;;;;;;;3.20;2.47;;;10.10;99.90;;;;;;5032213;28;20653;-75
2023/04/25 00:32:48;;;;;;;4.93;2.20;;;10.20;99.90;;;;;;5033097;28;20208;-74
2023/04/25 00:35:14;;;;;;;4.40;2.50;;;10.20;99.90;;;;;;5033074;28;20208;-73
2023/04/25 00:37:40;;;;;;;5.60;2.03;;;10.30;99.90;;;;;;5033049;28;20232;-73
2023/04/25 00:40:06;;;;;;;3.53;2.23;;;10.30;99.90;;;;;;5031441;28;20188;-76
2023/04/25 00:42:32;;;;;;;5.77;2.70;;;10.20;99.90;;;;;;5033291;28;20663;-76
2023/04/25 00:44:59;;;;;;;4.83;2.17;;;10.20;99.90;;;;;;5034233;28;20216;-74
2023/04/25 00:47:25;;;;;;;5.43;2.13;;;10.10;99.90;;;;;;5036399;28;20713;-74
2023/04/25 00:49:53;;;;;;;4.60;2.30;;;10.10;99.90;;;;;;5036296;28;20216;-74
2023/04/25 00:52:19;;;;;;;6.43;2.20;;;10.10;99.90;;;;;;5035795;28;20212;-73
2023/04/25 00:54:45;;;;;;;5.57;2.30;;;10.00;99.90;;;;;;5036538;28;20682;-74
2023/04/25 00:57:11;;;;;;;5.10;2.20;;;10.10;99.90;;;;;;5051893;28;20216;-75
2023/04/25 00:59:38;;;;;;;4.87;2.20;;;10.10;99.90;;;;;;5034360;28;20214;-75
2023/04/25 01:02:04;;;;;;;6.13;2.67;;;10.10;99.90;;;;;;5034907;28;20200;-75
2023/04/25 01:04:30;;;;;;;4.47;2.30;;;10.10;99.90;;;;;;5036262;28;20212;-75
2023/04/25 01:06:56;;;;;;;6.43;2.60;;;10.20;99.90;;;;;;5035598;28;20201;-75
2023/04/25 01:09:23;;;;;;;5.23;2.20;;;10.20;99.90;;;;;;5032523;28;20224;-74
2023/04/25 01:11:50;;;;;;;7.47;2.77;;;10.00;99.90;;;;;;5035205;28;20239;-74
2023/04/25 01:14:16;;;;;;;6.97;2.50;;;10.00;99.90;;;;;;5035520;28;20687;-73
2023/04/25 01:16:42;;;;;;;5.83;2.60;;;10.20;99.90;;;;;;5035464;28;20228;-74
2023/04/25 01:19:13;;;;;;;5.80;2.50;;;10.10;99.90;;;;;;5035273;28;20614;-77
2023/04/25 01:21:39;;;;;;;5.43;2.63;;;10.00;99.90;;;;;;5031335;28;20271;-74
2023/04/25 01:24:06;;;;;;;7.40;2.67;;;9.90;99.90;;;;;;5036682;28;20208;-75
2023/04/25 01:26:32;;;;;;;8.13;2.60;;;10.00;99.90;;;;;;5034538;28;20714;-75
2023/04/25 01:28:58;;;;;;;6.17;3.07;;;9.90;99.90;;;;;;5034392;28;20215;-74
2023/04/25 01:31:24;;;;;;;9.37;2.90;;;9.80;99.90;;;;;;5039552;28;20209;-75
2023/04/25 01:33:50;;;;;;;5.33;3.00;;;9.90;99.90;;;;;;5039131;28;20196;-74
2023/04/25 01:36:16;;;;;;;6.40;3.00;;;9.90;99.90;;;;;;5038311;28;20912;-74
2023/04/25 01:38:43;;;;;;;5.30;3.10;;;9.90;99.90;;;;;;5042085;28;20208;-75
2023/04/25 01:41:09;;;;;;;7.10;2.90;;;10.00;99.90;;;;;;5040069;28;20625;-75
2023/04/25 01:43:35;;;;;;;5.87;2.87;;;10.00;99.90;;;;;;5038207;28;20457;-75
2023/04/25 01:46:01;;;;;;;5.23;2.43;;;10.00;99.90;;;;;;5036604;28;20204;-74
2023/04/25 01:48:27;;;;;;;6.17;3.20;;;9.90;99.90;;;;;;5035601;28;20518;-74
2023/04/25 01:50:52;;;;;;;7.13;3.30;;;9.80;99.90;;;;;;5038021;28;20231;-75
2023/04/25 01:53:18;;;;;;;8.43;3.33;;;9.90;99.90;;;;;;5037781;28;20585;-72
2023/04/25 01:55:43;;;;;;;5.00;2.73;;;9.80;99.90;;;;;;5037848;28;20274;-74
2023/04/25 01:58:09;;;;;;;4.43;3.30;;;9.80;99.90;;;;;;5053848;28;20208;-75
2023/04/25 02:00:38;;;;;;;5.87;3.10;;;9.80;99.90;;;;;;5039110;28;20255;-75
2023/04/25 02:03:05;;;;;;;5.00;2.50;;;9.70;99.90;;;;;;5034731;28;20212;-75
2023/04/25 02:05:40;;;;;;;6.20;2.97;;;9.80;99.90;;;;;;5030609;28;20258;-75
2023/04/25 02:08:07;;;;;;;7.23;3.60;;;9.70;99.90;;;;;;5030245;28;20272;-74
2023/04/25 02:10:34;;;;;;;7.43;2.67;;;9.70;99.90;;;;;;5047059;28;20204;-75
2023/04/25 02:13:00;;;;;;;6.70;2.77;;;9.70;99.90;;;;;;5031726;28;20176;-75
2023/04/25 02:15:25;;;;;;;5.33;3.07;;;9.80;99.90;;;;;;5031899;28;20526;-73
2023/04/25 02:17:53;;;;;;;9.47;3.90;;;9.80;99.90;;;;;;5029936;28;20224;-75
2023/04/25 02:20:21;;;;;;;9.27;3.20;;;9.80;99.90;;;;;;5046738;28;20212;-73
2023/04/25 02:22:47;;;;;;;6.97;3.00;;;9.80;99.90;;;;;;5031095;28;20216;-75
2023/04/25 02:25:13;;;;;;;8.47;3.23;;;9.70;99.90;;;;;;5031587;28;20298;-75
2023/04/25 02:27:39;;;;;;;5.60;3.20;;;9.80;99.90;;;;;;5031434;28;20218;-75
2023/04/25 02:30:06;;;;;;;9.60;3.60;;;9.80;99.90;;;;;;5030408;28;20749;-75
2023/04/25 02:32:34;;;;;;;6.17;3.80;;;9.80;99.90;;;;;;5030760;28;20208;-74
2023/04/25 02:35:03;;;;;;;5.70;3.37;;;9.70;99.90;;;;;;5030844;28;20212;-75
2023/04/25 02:37:30;;;;;;;11.63;3.97;;;9.80;99.90;;;;;;5030295;28;20220;-74
2023/04/25 02:39:55;;;;;;;6.63;3.53;;;9.70;99.90;;;;;;5028029;28;20185;-75
2023/04/25 02:42:21;;;;;;;6.03;3.60;;;9.80;99.90;;;;;;5030893;28;20192;-73
2023/04/25 02:44:46;;;;;;;5.63;3.40;;;9.80;99.90;;;;;;5022461;28;20570;-75
2023/04/25 02:47:12;;;;;;;7.10;3.53;;;9.90;99.90;;;;;;5029040;28;20796;-75
2023/04/25 02:49:38;;;;;;;11.27;4.17;;;9.60;99.90;;;;;;5024080;28;20209;-75
2023/04/25 02:52:04;;;;;;;9.60;3.63;;;9.70;99.90;;;;;;5030214;28;20568;-75
2023/04/25 02:54:30;;;;;;;6.23;3.50;;;9.60;99.90;;;;;;5025823;28;20275;-74
2023/04/25 02:56:55;;;;;;;6.20;3.50;;;9.70;99.90;;;;;;5028953;28;20259;-74
2023/04/25 02:59:21;;;;;;;8.37;3.43;;;9.70;99.90;;;;;;5029898;28;20628;-75
2023/04/25 03:01:46;;;;;;;5.03;3.37;;;9.70;99.90;;;;;;5029214;28;20208;-75
2023/04/25 03:04:12;;;;;;;7.50;3.80;;;9.70;99.90;;;;;;5029683;28;20238;-74
2023/04/25 03:06:38;;;;;;;8.60;3.17;;;9.60;99.90;;;;;;5029721;28;20200;-74
2023/04/25 03:09:03;;;;;;;5.07;3.30;;;9.60;99.90;;;;;;5021647;28;20704;-73
2023/04/25 03:11:29;;;;;;;7.67;3.60;;;9.60;99.90;;;;;;5028400;28;20328;-73
2023/04/25 03:13:55;;;;;;;8.83;3.33;;;9.60;99.90;;;;;;5026897;28;20200;-74
2023/04/25 03:16:21;;;;;;;6.87;3.47;;;9.70;99.90;;;;;;5026377;28;20727;-75
2023/04/25 03:18:47;;;;;;;9.00;3.83;;;9.80;99.90;;;;;;5038186;28;20538;-75
2023/04/25 03:21:13;;;;;;;7.03;3.97;;;9.70;99.90;;;;;;5046269;28;20176;-75
2023/04/25 03:23:38;;;;;;;7.03;3.10;;;9.50;99.90;;;;;;5029801;28;20216;-75
2023/04/25 03:26:04;;;;;;;5.77;3.53;;;9.50;99.90;;;;;;5027862;28;20208;-75
2023/04/25 03:28:30;;;;;;;8.37;4.13;;;9.50;99.90;;;;;;5027279;28;20208;-75
2023/04/25 03:30:55;;;;;;;7.23;3.93;;;9.50;99.90;;;;;;5025962;28;20203;-75
2023/04/25 03:33:21;;;;;;;6.97;3.93;;;9.40;99.90;;;;;;5030868;28;20226;-75
2023/04/25 03:35:47;;;;;;;7.57;4.00;;;9.40;99.90;;;;;;5044186;28;20304;-75
2023/04/25 03:38:12;;;;;;;7.70;4.50;;;9.40;99.90;;;;;;5027744;28;20259;-74
2023/04/25 03:40:38;;;;;;;9.23;4.57;;;9.40;99.90;;;;;;5028113;28;20225;-76
2023/04/25 03:43:04;;;;;;;8.63;3.93;;;9.40;99.90;;;;;;5029861;28;20588;-75
2023/04/25 03:45:29;;;;;;;7.83;3.57;;;9.40;99.90;;;;;;5025331;28;20722;-74
2023/04/25 03:47:55;;;;;;;6.47;4.33;;;9.50;99.90;;;;;;5017627;28;20292;-75
2023/04/25 03:50:21;;;;;;;7.03;3.90;;;9.50;99.90;;;;;;5018911;28;20201;-76
2023/04/25 03:52:46;;;;;;;11.93;4.03;;;9.40;99.90;;;;;;5015309;28;20204;-75
2023/04/25 03:55:12;;;;;;;9.03;4.37;;;9.40;99.90;;;;;;5023942;28;20215;-74
2023/04/25 03:57:38;;;;;;;7.90;3.90;;;9.50;99.90;;;;;;5022639;28;20208;-75
2023/04/25 04:00:04;;;;;;;10.73;4.40;;;9.60;99.90;;;;;;5016891;28;20420;-75
2023/04/25 04:02:30;;;;;;;10.50;4.13;;;9.50;99.90;;;;;;5019034;28;20575;-75
2023/04/25 04:04:56;;;;;;;8.00;3.80;;;9.50;99.90;;;;;;5024593;28;20204;-75
2023/04/25 04:07:22;;;;;;;9.03;3.67;;;9.50;99.90;;;;;;5026775;28;20632;-75
2023/04/25 04:09:47;;;;;;;11.10;4.13;;;9.40;99.90;;;;;;5024771;28;20182;-75
2023/04/25 04:12:13;;;;;;;9.60;4.23;;;9.40;99.90;;;;;;5027981;28;20624;-75
2023/04/25 04:14:39;;;;;;;8.07;3.90;;;9.40;99.90;;;;;;5022476;28;20294;-74
2023/04/25 04:17:05;;;;;;;6.67;3.63;;;9.50;99.90;;;;;;5019350;28;20217;-74
2023/04/25 04:19:31;;;;;;;8.60;3.57;;;9.40;99.90;;;;;;5027726;28;20212;-74
2023/04/25 04:21:57;;;;;;;10.07;5.43;;;9.50;99.90;;;;;;5024015;28;20656;-74
2023/04/25 04:24:22;;;;;;;8.03;3.77;;;9.50;99.90;;;;;;5025614;28;20674;-75
2023/04/25 04:26:48;;;;;;;9.80;4.37;;;9.50;99.90;;;;;;5022057;28;20217;-74
2023/04/25 04:29:20;;;;;;;7.30;3.83;;;9.40;99.90;;;;;;5024245;28;20204;-75
2023/04/25 04:31:50;;;;;;;7.77;3.60;;;9.40;99.90;;;;;;5023574;28;20213;-74
2023/04/25 04:34:17;;;;;;;7.43;4.10;;;9.40;99.90;;;;;;5023524;28;20212;-74
2023/04/25 04:36:44;;;;;;;6.60;3.60;;;9.60;99.90;;;;;;5025490;28;20566;-75
2023/04/25 04:39:10;;;;;;;7.57;4.07;;;9.70;99.90;;;;;;5027629;28;20228;-75
2023/04/25 04:41:36;;;;;;;6.57;3.60;;;9.70;99.90;;;;;;5026779;28;20281;-75
2023/04/25 04:44:02;;;;;;;9.37;4.07;;;9.70;99.90;;;;;;5026517;28;20212;-75
2023/04/25 04:46:28;;;;;;;8.70;3.60;;;9.60;99.90;;;;;;5027932;28;20738;-73
2023/04/25 04:48:56;;;;;;;6.20;3.50;;;9.50;99.90;;;;;;5027006;28;20165;-76
2023/04/25 04:51:21;;;;;;;7.20;3.50;;;9.70;99.90;;;;;;5046270;28;20178;-76
2023/04/25 04:53:47;;;;;;;9.00;4.03;;;9.60;99.90;;;;;;5025243;28;20212;-75
2023/04/25 04:56:13;;;;;;;10.33;4.00;;;9.60;99.90;;;;;;5031467;28;20262;-74
2023/04/25 04:58:38;;;;;;;8.27;3.83;;;9.70;99.90;;;;;;5032285;28;20248;-75
2023/04/25 05:01:04;;;;;;;9.87;3.50;;;9.80;99.90;;;;;;5047935;28;20176;-74
2023/04/25 05:03:30;;;;;;;6.50;3.43;;;9.70;99.90;;;;;;5031673;28;20234;-73
2023/04/25 05:05:56;;;;;;;11.47;3.83;;;9.70;99.90;;;;;;5031325;28;20679;-73
2023/04/25 05:08:21;;;;;;;7.83;3.67;;;9.70;99.90;;;;;;5030652;28;20212;-74
2023/04/25 05:10:47;;;;;;;8.57;3.70;;;9.70;99.90;;;;;;5032487;28;20220;-72
2023/04/25 05:13:12;;;;;;;7.83;3.73;;;9.60;99.90;;;;;;5032174;28;20212;-74
2023/04/25 05:15:38;;;;;;;9.60;4.10;;;9.50;99.90;;;;;;5048003;28;20562;-74
2023/04/25 05:18:04;;;;;;;9.40;4.17;;;9.50;99.90;;;;;;5030522;28;20227;-74
2023/04/25 05:20:29;;;;;;;10.07;4.60;;;9.60;99.90;;;;;;5032479;28;20204;-73
2023/04/25 05:22:55;;;;;;;8.57;4.47;;;9.70;99.90;;;;;;5031210;28;20401;-74
2023/04/25 05:25:21;;;;;;;9.27;3.93;;;9.80;99.90;;;;;;5047111;28;20200;-73
2023/04/25 05:27:46;;;;;;;10.83;3.83;;;9.70;99.90;;;;;;5032294;28;20285;-71
2023/04/25 05:30:12;;;;;;;9.77;4.40;;;9.80;99.90;;;;;;5032508;28;20208;-73
2023/04/25 05:32:37;;;;;;;8.57;3.67;;;9.80;99.90;;;;;;5027987;28;20208;-73
2023/04/25 05:35:03;;;;;;;8.73;3.77;;;9.60;99.90;;;;;;5030625;28;20283;-74
2023/04/25 05:37:30;;;;;;;11.50;5.27;;;9.60;99.90;;;;;;5032016;28;20706;-73
2023/04/25 05:39:56;;;;;;;8.23;3.77;;;9.60;99.90;;;;;;5030008;28;20234;-74
2023/04/25 05:42:22;;;;;;;7.40;4.13;;;9.50;99.90;;;;;;5030794;28;20180;-73
2023/04/25 05:44:47;;;;;;;8.30;4.00;;;9.70;99.90;;;;;;5046733;28;20216;-74
2023/04/25 05:47:13;;;;;;;9.23;4.47;;;9.70;99.90;;;;;;5031729;28;20283;-74
2023/04/25 05:49:39;;;;;;;9.60;4.00;;;9.80;99.90;;;;;;5031054;28;20216;-73
2023/04/25 05:52:04;;;;;;;9.40;5.20;;;9.90;99.90;;;;;;5031610;28;20180;-73
2023/04/25 05:54:30;;;;;;;10.63;4.30;;;9.90;99.90;;;;;;5032057;28;20257;-73
2023/04/25 05:56:59;;;;;;;7.77;4.70;;;10.00;99.90;;;;;;5046579;28;20227;-74
2023/04/25 05:59:25;;;;;;;10.67;5.17;;;9.80;99.90;;;;;;5031170;28;20227;-73
2023/04/25 06:01:51;;;;;;;8.00;5.40;;;9.70;99.90;;;;;;5031176;28;20758;-74
2023/04/25 06:04:17;;;;;;;12.63;4.57;;;9.70;99.90;;;;;;5046673;28;20908;-73
2023/04/25 06:06:42;;;;;;;10.07;5.00;;;9.50;99.90;;;;;;5030377;28;20192;-74
2023/04/25 06:09:08;;;;;;;5.13;3.73;;;9.60;99.90;;;;;;5029572;28;20303;-74
2023/04/25 06:11:34;;;;;;;6.50;4.50;;;9.50;99.90;;;;;;5045851;28;20204;-74
2023/04/25 06:14:00;;;;;;;11.27;4.93;;;9.70;99.90;;;;;;5031453;28;20204;-74
2023/04/25 06:16:25;;;;;;;10.40;4.73;;;9.60;99.90;;;;;;5031259;28;20219;-72
2023/04/25 06:18:51;;;;;;;11.13;4.40;;;9.60;99.90;;;;;;5030551;28;20180;-74
2023/04/25 06:21:17;;;;;;;7.70;4.70;;;9.80;99.90;;;;;;5031740;28;20184;-74
2023/04/25 06:23:42;;;;;;;6.47;4.70;;;9.90;99.90;;;;;;5030387;28;20291;-74
2023/04/25 06:26:08;;;;;;;12.17;4.77;;;9.90;99.90;;;;;;5030655;28;20219;-73
2023/04/25 06:28:34;;;;;;;9.77;4.87;;;9.80;99.90;;;;;;5030245;28;20205;-72
2023/04/25 06:30:59;;;;;;;9.53;4.80;;;9.70;99.90;;;;;;5030549;28;20207;-75
2023/04/25 06:33:25;;;;;;;10.03;4.73;;;9.80;99.90;;;;;;5046779;28;20180;-73
2023/04/25 06:35:50;;;;;;;6.83;4.33;;;10.00;99.90;;;;;;5027586;28;20561;-75
2023/04/25 06:38:16;;;;;;;11.47;4.50;;;9.90;99.90;;;;;;5029229;28;20981;-74
2023/04/25 06:40:42;;;;;;;11.63;5.43;;;9.90;99.90;;;;;;5030791;28;20213;-74
2023/04/25 06:43:07;;;;;;;6.50;4.40;;;9.60;99.90;;;;;;5030825;28;20212;-75
2023/04/25 06:45:33;;;;;;;15.33;5.97;;;9.80;99.90;;;;;;5031423;28;20172;-73
2023/04/25 06:47:58;;;;;;;10.93;4.53;;;9.70;99.90;;;;;;5030028;28;20208;-74
2023/04/25 06:50:24;;;;;;;8.27;4.57;;;9.70;99.90;;;;;;5029137;28;20204;-75
2023/04/25 06:52:50;;;;;;;8.40;4.43;;;9.70;99.90;;;;;;5030618;28;20208;-74
2023/04/25 06:55:15;;;;;;;6.63;3.90;;;9.50;99.90;;;;;;5030748;28;20695;-75
2023/04/25 06:57:41;;;;;;;7.17;4.27;;;9.40;99.90;;;;;;5031230;28;20211;-75
2023/04/25 07:00:10;;;;;;;11.87;4.57;;;9.50;99.90;;;;;;5030604;28;20266;-74
2023/04/25 07:02:36;;;;;;;9.90;5.63;;;9.50;99.90;;;;;;5028680;28;20420;-73
2023/04/25 07:05:03;;;;;;;9.80;4.47;;;9.60;99.90;;;;;;5030940;28;20200;-74
2023/04/25 07:07:30;;;;;;;12.37;5.00;;;9.60;99.90;;;;;;5030825;28;20219;-73
2023/04/25 07:09:56;;;;;;;8.57;4.40;;;9.60;99.90;;;;;;5028627;28;20827;-74
2023/04/25 07:12:21;;;;;;;12.27;5.20;;;9.60;99.90;;;;;;5030439;28;20412;-75
2023/04/25 07:14:47;;;;;;;9.93;5.00;;;9.60;99.90;;;;;;5032209;28;20215;-73
2023/04/25 07:17:13;;;;;;;7.07;3.73;;;9.40;99.90;;;;;;5030440;28;20226;-74
2023/04/25 07:19:39;;;;;;;6.77;4.13;;;9.50;99.90;;;;;;5030312;28;20219;-73
2023/04/25 07:22:06;;;;;;;9.67;4.37;;;9.40;99.90;;;;;;5033340;28;20651;-74
2023/04/25 07:24:32;;;;;;;8.03;3.57;;;9.50;99.90;;;;;;5045858;28;20176;-75
2023/04/25 07:26:58;;;;;;;9.20;3.50;;;9.50;99.90;;;;;;5029932;28;20374;-73
2023/04/25 07:29:24;;;;;;;8.43;3.93;;;9.50;99.90;;;;;;5029467;28;20200;-75
2023/04/25 07:31:49;;;;;;;10.23;3.97;;;9.50;99.90;;;;;;5045264;28;20215;-75
2023/04/25 07:34:15;;;;;;;8.07;4.30;;;9.60;99.90;;;;;;5030243;28;20281;-75
2023/04/25 07:36:41;;;;;;;13.60;4.67;;;9.70;99.90;;;;;;5045329;28;20686;-74
2023/04/25 07:39:08;;;;;;;13.33;5.10;;;9.80;99.90;;;;;;5027779;28;20277;-74
2023/04/25 07:41:34;;;;;;;14.97;5.47;;;9.70;99.90;;;;;;5028767;28;20204;-74
2023/04/25 07:44:00;;;;;;;13.43;4.63;;;9.60;99.90;;;;;;5029961;28;20555;-74
2023/04/25 07:46:26;;;;;;;12.83;3.93;;;9.80;99.90;;;;;;5028905;28;20582;-73
2023/04/25 07:48:51;;;;;;;13.53;5.10;;;9.60;99.90;;;;;;5027597;28;20180;-74
2023/04/25 07:51:19;;;;;;;13.07;4.27;;;9.70;99.90;;;;;;5029511;28;20647;-74
2023/04/25 07:53:45;;;;;;;16.40;4.67;;;9.50;99.90;;;;;;5028299;28;20272;-74
2023/04/25 07:56:11;;;;;;;22.47;4.63;;;9.60;99.90;;;;;;5028540;28;20214;-74
2023/04/25 07:58:37;;;;;;;15.13;4.77;;;9.70;99.90;;;;;;5044792;28;20212;-75
2023/04/25 08:01:02;;;;;;;18.33;5.70;;;9.80;99.90;;;;;;5029634;28;20177;-75
2023/04/25 08:03:28;;;;;;;16.37;5.00;;;10.00;99.90;;;;;;5047426;28;20200;-73
2023/04/25 08:05:54;;;;;;;15.73;4.13;;;10.10;99.90;;;;;;5032932;28;20595;-74
2023/04/25 08:08:19;;;;;;;19.83;4.83;;;10.20;99.90;;;;;;5033387;28;20239;-75
2023/04/25 08:10:45;;;;;;;24.70;4.47;;;10.30;99.90;;;;;;5032609;28;20219;-74
2023/04/25 08:13:10;;;;;;;17.47;4.27;;;10.30;99.90;;;;;;5035320;28;20583;-76
2023/04/25 08:15:36;;;;;;;19.70;5.07;;;10.30;99.90;;;;;;5033090;28;20704;-74
2023/04/25 08:18:02;;;;;;;13.37;3.47;;;10.20;99.90;;;;;;5032864;28;20216;-75
2023/04/25 08:20:28;;;;;;;20.43;4.43;;;10.40;99.90;;;;;;5025823;28;20201;-74
2023/04/25 08:22:53;;;;;;;15.17;4.60;;;10.40;99.90;;;;;;5048741;28;21010;-74
2023/04/25 08:25:19;;;;;;;16.40;4.33;;;10.80;99.90;;;;;;5033272;28;20979;-76
2023/04/25 08:27:45;;;;;;;15.67;4.43;;;10.90;99.90;;;;;;5033277;28;20220;-75
2023/04/25 08:30:11;;;;;;;17.73;4.63;;;10.90;99.90;;;;;;5032573;28;20228;-75
2023/04/25 08:32:38;;;;;;;11.30;4.23;;;11.00;99.90;;;;;;5033076;28;20232;-75
2023/04/25 08:35:04;;;;;;;17.50;4.23;;;11.00;99.90;;;;;;5030315;28;20205;-74
2023/04/25 08:37:30;;;;;;;17.67;4.37;;;10.60;99.90;;;;;;5048229;28;20220;-74
2023/04/25 08:39:56;;;;;;;14.97;3.70;;;10.70;99.90;;;;;;5032332;28;20176;-74
2023/04/25 08:42:23;;;;;;;11.23;3.97;;;10.70;99.90;;;;;;5033181;28;20172;-75
2023/04/25 08:44:49;;;;;;;16.53;6.93;;;10.80;99.90;;;;;;5032632;28;20238;-75
2023/04/25 08:47:15;;;;;;;14.50;5.63;;;11.30;99.90;;;;;;5032786;28;20216;-76
2023/04/25 08:49:45;;;;;;;9.97;3.63;;;11.80;99.90;;;;;;5032398;28;20651;-75
2023/04/25 08:52:13;;;;;;;11.57;2.93;;;11.70;99.90;;;;;;5031271;28;20291;-75
2023/04/25 08:54:46;;;;;;;9.07;3.33;;;11.50;99.90;;;;;;5028186;28;20260;-75
2023/04/25 08:57:12;;;;;;;11.35;3.20;;;11.80;99.90;;;;;;5029202;28;20208;-74
2023/04/25 08:59:40;;;;;;;11.38;3.00;;;12.00;99.90;;;;;;5030731;28;20228;-74
2023/04/25 09:02:06;;;;;;;11.43;3.87;;;12.10;99.90;;;;;;5031662;28;20421;-74
2023/04/25 09:04:32;;;;;;;13.60;3.65;;;12.40;99.90;;;;;;5032795;28;20435;-74
2023/04/25 09:06:58;;;;;;;9.13;3.08;;;12.60;99.90;;;;;;5032409;28;20687;-75
2023/04/25 09:09:24;;;;;;;10.23;3.70;;;13.40;99.90;;;;;;5031160;28;20655;-75
2023/04/25 09:11:50;;;;;;;11.05;3.17;;;14.10;99.90;;;;;;5032092;28;20215;-75
2023/04/25 09:14:21;;;;;;;12.10;3.58;;;14.20;99.90;;;;;;5028794;28;20201;-76
2023/04/25 09:16:56;;;;;;;9.35;3.90;;;13.70;99.90;;;;;;5030808;28;20614;-74
2023/04/25 09:19:23;;;;;;;15.70;3.45;;;13.30;99.90;;;;;;5032182;28;20203;-74
2023/04/25 09:21:54;;;;;;;13.90;3.13;;;13.80;99.90;;;;;;5029578;28;20184;-74
2023/04/25 09:24:43;;;;;;;14.80;3.55;;;13.20;99.90;;;;;;5032799;28;20180;-74
2023/04/25 09:27:10;;;;;;;8.75;3.30;;;12.40;99.90;;;;;;5031076;28;20209;-74
2023/04/25 09:29:37;;;;;;;11.93;3.30;;;12.70;99.90;;;;;;5030550;28;20200;-75
2023/04/25 09:32:20;;;;;;;7.40;2.92;;;13.10;99.90;;;;;;5030059;28;20213;-74
2023/04/25 09:34:55;;;;;;;12.07;3.20;;;13.20;99.90;;;;;;5043932;28;20204;-74
2023/04/25 09:37:28;;;;;;;9.80;3.90;;;13.30;99.90;;;;;;5031928;28;20877;-75
2023/04/25 09:40:01;;;;;;;10.25;2.58;;;12.90;99.90;;;;;;5046856;28;20181;-75
2023/04/25 09:42:30;;;;;;;11.30;2.65;;;12.90;99.90;;;;;;5032235;28;20181;-73
2023/04/25 09:44:57;;;;;;;10.70;2.58;;;12.80;99.90;;;;;;5047036;28;20220;-74
2023/04/25 09:47:25;;;;;;;9.07;2.80;;;12.50;99.90;;;;;;5032029;28;20299;-74
2023/04/25 09:49:52;;;;;;;12.90;3.20;;;12.30;99.90;;;;;;5031352;28;20219;-74
2023/04/25 09:52:22;;;;;;;10.77;3.43;;;12.40;99.90;;;;;;5031680;28;20242;-75
2023/04/25 09:54:49;;;;;;;9.20;2.67;;;12.20;99.90;;;;;;5031398;28;20196;-75
2023/04/25 09:57:17;;;;;;;13.83;3.40;;;12.20;99.90;;;;;;5032114;28;20200;-75
2023/04/25 09:59:48;;;;;;;11.07;2.30;;;12.30;99.90;;;;;;5031345;28;20258;-74
2023/04/25 10:02:17;;;;;;;10.50;2.80;;;12.50;99.90;;;;;;5030974;28;20206;-74
2023/04/25 10:04:47;;;;;;;10.73;2.50;;;12.40;99.90;;;;;;5031213;28;20230;-75
2023/04/25 10:07:13;;;;;;;13.98;2.80;;;12.30;99.90;;;;;;5029811;28;20231;-74
2023/04/25 10:09:40;;;;;;;7.78;2.28;;;12.40;99.90;;;;;;5046974;28;20552;-74
2023/04/25 10:12:07;;;;;;;10.70;2.80;;;12.40;99.90;;;;;;5029557;28;20215;-76
2023/04/25 10:14:34;;;;;;;8.70;2.77;;;12.10;99.90;;;;;;5031653;28;20635;-75
2023/04/25 10:16:59;;;;;;;9.80;2.97;;;11.90;99.90;;;;;;5031114;28;20230;-75
2023/04/25 10:19:26;;;;;;;7.60;2.33;;;12.20;99.90;;;;;;5029558;28;20291;-72
2023/04/25 10:22:25;;;;;;;7.43;2.60;;;12.10;99.90;;;;;;5031039;28;20541;-74
2023/04/25 10:24:52;;;;;;;8.10;2.90;;;12.30;99.90;;;;;;5030700;28;20188;-74
2023/04/25 10:27:18;;;;;;;10.60;4.23;;;12.20;99.90;;;;;;5028454;28;20208;-73
2023/04/25 10:29:44;;;;;;;10.40;3.23;;;12.30;99.90;;;;;;5045705;28;20232;-75
2023/04/25 10:32:10;;;;;;;8.33;2.83;;;12.20;99.90;;;;;;5030885;28;20584;-74
2023/04/25 10:34:43;;;;;;;10.50;2.70;;;12.20;99.90;;;;;;5029378;28;20208;-74
2023/04/25 10:37:10;;;;;;;7.07;2.30;;;12.00;99.90;;;;;;5029241;28;20240;-75
2023/04/25 10:39:41;;;;;;;7.73;3.33;;;12.00;99.90;;;;;;5030965;28;20173;-75
2023/04/25 10:42:08;;;;;;;8.03;3.03;;;12.00;99.90;;;;;;5030722;28;20212;-74
2023/04/25 10:44:34;;;;;;;9.27;2.50;;;12.10;99.90;;;;;;5030754;28;20294;-74
2023/04/25 10:47:02;;;;;;;12.03;2.93;;;12.30;99.90;;;;;;5030558;28;20212;-74
2023/04/25 10:49:50;;;;;;;12.13;2.97;;;12.20;99.90;;;;;;5029276;28;20406;-74
2023/04/25 10:52:25;;;;;;;13.93;2.90;;;12.30;99.90;;;;;;5027168;28;20200;-75
2023/04/25 10:54:54;;;;;;;11.13;3.20;;;12.10;99.90;;;;;;5029009;28;20204;-74
2023/04/25 10:57:43;;;;;;;9.83;2.90;;;12.30;99.90;;;;;;5031039;28;20200;-73
2023/04/25 11:00:11;;;;;;;9.03;2.60;;;12.50;99.90;;;;;;5028185;28;20703;-73
2023/04/25 11:02:42;;;;;;;8.80;2.50;;;12.20;99.90;;;;;;5032881;28;20262;-75
2023/04/25 11:05:08;;;;;;;3.77;1.53;;;12.20;99.90;;;;;;5029082;28;20215;-74
2023/04/25 11:07:51;;;;;;;9.63;2.23;;;12.20;99.90;;;;;;5030507;28;20254;-75
2023/04/25 11:10:17;;;;;;;7.87;2.60;;;12.10;99.90;;;;;;5028959;28;20235;-75
2023/04/25 11:12:44;;;;;;;8.70;2.83;;;11.90;99.90;;;;;;5030927;28;20183;-74
2023/04/25 11:15:10;;;;;;;9.87;2.70;;;11.70;99.90;;;;;;5028629;28;20213;-75
2023/04/25 11:17:36;;;;;;;15.07;3.43;;;11.40;99.90;;;;;;5045633;28;20266;-74
2023/04/25 11:20:07;;;;;;;8.13;2.40;;;11.50;99.90;;;;;;5029873;28;20212;-75
2023/04/25 11:22:33;;;;;;;8.70;2.50;;;11.30;99.90;;;;;;5030233;28;20212;-74
2023/04/25 11:25:05;;;;;;;7.10;2.13;;;10.80;99.90;;;;;;5026416;28;20180;-74
2023/04/25 11:27:31;;;;;;;7.13;2.50;;;11.10;99.90;;;;;;5029762;28;20730;-75
2023/04/25 11:29:56;;;;;;;4.40;1.60;;;10.90;99.90;;;;;;5029747;28;20207;-74
2023/04/25 11:32:23;;;;;;;5.20;1.87;;;11.00;99.90;;;;;;5028752;28;20283;-75
2023/04/25 11:34:48;;;;;;;11.50;2.20;;;11.00;99.90;;;;;;5028412;28;20286;-75
2023/04/25 11:37:14;;;;;;;8.47;2.30;;;11.10;99.90;;;;;;5029781;28;20694;-75
2023/04/25 11:39:47;;;;;;;6.53;2.67;;;11.40;99.90;;;;;;5029063;28;20211;-75
2023/04/25 11:42:13;;;;;;;4.10;1.33;;;11.40;99.90;;;;;;5029848;28;20208;-74
2023/04/25 11:44:40;;;;;;;5.60;1.87;;;11.70;99.90;;;;;;5029985;28;20219;-75
2023/04/25 11:47:06;;;;;;;8.70;2.10;;;11.70;99.90;;;;;;5029918;28;20647;-75
2023/04/25 11:49:32;;;;;;;7.23;2.50;;;11.40;99.90;;;;;;5029667;28;20291;-75
2023/04/25 11:51:57;;;;;;;15.03;6.37;;;11.60;99.90;;;;;;5045027;28;20180;-74
2023/04/25 11:54:23;;;;;;;13.30;5.13;;;11.70;99.90;;;;;;5029009;28;20168;-74
2023/04/25 11:56:49;;;;;;;21.33;10.13;;;11.90;99.90;;;;;;5030009;28;20223;-75
2023/04/25 11:59:16;;;;;;;6.53;3.10;;;11.90;99.90;;;;;;5029078;28;20200;-75
2023/04/25 12:01:48;;;;;;;9.43;2.23;;;12.00;99.90;;;;;;5045223;28;20242;-75
2023/04/25 12:04:14;;;;;;;11.97;2.63;;;12.00;99.90;;;;;;5028598;28;20208;-75
2023/04/25 12:06:41;;;;;;;8.00;2.57;;;12.10;99.90;;;;;;5030617;28;20618;-74
2023/04/25 12:09:12;;;;;;;8.40;2.43;;;12.00;99.90;;;;;;5029050;28;20205;-75
2023/04/25 12:11:46;;;;;;;9.03;2.40;;;11.80;99.90;;;;;;5028368;28;20703;-75
2023/04/25 12:14:20;;;;;;;6.57;2.27;;;11.70;99.90;;;;;;5029681;28;20211;-75
2023/04/25 12:16:46;;;;;;;5.33;2.00;;;11.50;99.90;;;;;;5028434;28;20213;-75
2023/04/25 12:19:16;;;;;;;10.33;2.47;;;11.30;99.90;;;;;;5029230;28;20208;-75
2023/04/25 12:21:43;;;;;;;5.80;2.27;;;11.50;99.90;;;;;;5028880;28;20181;-74
2023/04/25 12:24:24;;;;;;;9.67;2.10;;;11.50;99.90;;;;;;5029545;28;20273;-75
2023/04/25 12:26:54;;;;;;;4.93;2.03;;;11.60;99.90;;;;;;5029518;28;20264;-75
2023/04/25 12:29:23;;;;;;;6.97;2.17;;;11.90;99.90;;;;;;5029350;28;20208;-74
2023/04/25 12:31:51;;;;;;;5.50;1.97;;;12.10;99.90;;;;;;5044934;28;20239;-75
2023/04/25 12:34:17;;;;;;;6.83;2.40;;;12.30;99.90;;;;;;5029227;28;20263;-75
2023/04/25 12:36:43;;;;;;;8.10;3.07;;;12.50;99.90;;;;;;5030042;28;20710;-75
2023/04/25 12:39:15;;;;;;;8.17;2.30;;;12.40;99.90;;;;;;5029027;28;20212;-75
2023/04/25 12:41:41;;;;;;;6.67;2.17;;;12.10;99.90;;;;;;5044662;28;20582;-75
2023/04/25 12:44:06;;;;;;;6.50;2.20;;;12.20;99.90;;;;;;5029373;28;20205;-74
2023/04/25 12:46:32;;;;;;;6.10;2.00;;;12.10;99.90;;;;;;5028336;28;20220;-74